logo
Search for airport 
image banner adimage banner adimage banner ad
image banner ad

LKPF - Pisek

Located in Pisek, Czech Republic

ICAO - , IATA -

Data provided by Airmate  

General information

Coordinates: N49°18'2" E14°9'32"
Elevation is 1266 feet MSL.
 
View others Airports in South Bohemian Region

Operational data

Special qualification required
Current time UTC:
Current local time:
Weather at : LKLN - Plzen/Line ( 76 km )
METAR: LKLN 171900Z AUTO 29003KT 250V350 9999 // BKN045 BKN059 OVC075 05/03 Q1009
View NOTAMs / SUP AIP / TFR affecting this airport [VIEW]
Communications frequencies: [VIEW]

Runways:

Airport contact information

Address: Pisek Czech Republic

Satellite view of LKPF